createdAt,value
2023-05-18T00:00:00.426Z,101228.88
2023-05-18T00:05:02.215Z,101233.56
2023-05-18T00:10:04.053Z,101222.91
2023-05-18T00:15:06.304Z,101216.97
2023-05-18T00:20:09.234Z,101220.50
2023-05-18T00:25:10.695Z,101216.53
2023-05-18T00:30:12.868Z,101214.72
2023-05-18T00:35:14.387Z,101209.78
2023-05-18T00:40:16.530Z,101219.66
2023-05-18T00:45:19.133Z,101215.03
2023-05-18T00:50:20.602Z,101210.50
2023-05-18T00:55:22.293Z,101216.22
2023-05-18T01:00:24.337Z,101218.81
2023-05-18T01:05:25.940Z,101215.75
2023-05-18T01:10:27.467Z,101209.53
2023-05-18T01:15:33.959Z,101210.06
2023-05-18T01:20:57.567Z,101206.66
2023-05-18T01:25:58.938Z,101214.91
2023-05-18T01:31:01.128Z,101212.84
2023-05-18T01:36:02.676Z,101214.44
2023-05-18T01:41:14.063Z,101212.47
2023-05-18T01:46:43.970Z,101208.41
2023-05-18T01:51:46.972Z,101209.47
2023-05-18T01:56:50.733Z,101208.25
2023-05-18T02:01:59.534Z,101213.06
2023-05-18T02:07:01.525Z,101213.22
2023-05-18T02:12:03.130Z,101219.47
2023-05-18T02:17:07.006Z,101213.31
2023-05-18T02:22:08.580Z,101214.03
2023-05-18T02:27:09.971Z,101211.34
2023-05-18T02:32:11.479Z,101222.38
2023-05-18T02:37:14.027Z,101213.94
2023-05-18T02:42:15.432Z,101214.06
2023-05-18T02:47:17.009Z,101203.09
2023-05-18T02:52:18.486Z,101212.28
2023-05-18T02:57:20.350Z,101203.69
2023-05-18T03:02:23.733Z,101216.31
2023-05-18T03:07:27.462Z,101222.44
2023-05-18T03:12:28.854Z,101218.09
2023-05-18T03:17:30.335Z,101214.59
2023-05-18T03:22:31.740Z,101221.94
2023-05-18T03:27:33.847Z,101222.41
2023-05-18T03:32:37.021Z,101222.28
2023-05-18T03:37:38.790Z,101219.75
2023-05-18T03:42:41.103Z,101215.53
2023-05-18T03:47:42.559Z,101224.84
2023-05-18T03:52:44.510Z,101227.50
2023-05-18T03:57:45.924Z,101220.56
2023-05-18T04:02:47.596Z,101226.81
2023-05-18T04:07:50.013Z,101224.41
2023-05-18T04:12:51.702Z,101230.47
2023-05-18T04:17:53.746Z,101227.66
2023-05-18T04:22:57.337Z,101230.31
2023-05-18T04:27:58.762Z,101239.63
2023-05-18T04:33:00.497Z,101237.38
2023-05-18T04:38:02.601Z,101245.41
2023-05-18T04:43:05.587Z,101251.88
2023-05-18T04:48:07.744Z,101248.31
2023-05-18T04:53:12.166Z,101249.59
2023-05-18T04:58:13.683Z,101247.19
2023-05-18T05:03:15.163Z,101252.22
2023-05-18T05:08:16.653Z,101251.94
2023-05-18T05:13:18.076Z,101247.94
2023-05-18T05:18:19.890Z,101248.72
2023-05-18T05:23:21.354Z,101244.72
2023-05-18T05:28:22.884Z,101244.06
2023-05-18T05:33:24.400Z,101243.63
2023-05-18T05:38:26.207Z,101238.19
2023-05-18T05:43:27.682Z,101255.66
2023-05-18T05:48:29.128Z,101245.09
2023-05-18T05:53:30.600Z,101249.28
2023-05-18T05:58:31.989Z,101250.97
2023-05-18T06:03:35.815Z,101257.16
2023-05-18T06:08:37.673Z,101260.13
2023-05-18T06:13:39.105Z,101264.44
2023-05-18T06:18:40.561Z,101264.69
2023-05-18T06:23:42.976Z,101252.81
2023-05-18T06:28:44.400Z,101273.63
2023-05-18T06:33:45.839Z,101261.22
2023-05-18T06:38:47.272Z,101264.63
2023-05-18T06:43:48.883Z,101267.69
2023-05-18T06:48:51.382Z,101273.59
2023-05-18T06:53:52.852Z,101269.22
2023-05-18T06:58:54.254Z,101261.00
2023-05-18T07:03:56.786Z,101264.69
2023-05-18T07:08:58.398Z,101274.63
2023-05-18T07:13:59.967Z,101273.81
2023-05-18T07:19:01.570Z,101275.31
2023-05-18T07:24:03.143Z,101280.53
2023-05-18T07:29:04.587Z,101282.91
2023-05-18T07:34:06.110Z,101270.03
2023-05-18T07:39:08.140Z,101268.41
2023-05-18T07:44:09.495Z,101269.53
2023-05-18T07:49:11.010Z,101261.53
2023-05-18T07:54:12.761Z,101256.88
2023-05-18T07:59:14.280Z,101259.28
2023-05-18T08:04:15.935Z,101255.41
2023-05-18T08:09:22.076Z,101253.56
2023-05-18T08:14:23.650Z,101257.53
2023-05-18T08:19:25.870Z,101250.56
2023-05-18T08:24:27.528Z,101251.53
2023-05-18T08:29:28.974Z,101245.94
2023-05-18T08:34:30.383Z,101245.19
2023-05-18T08:39:32.346Z,101240.91
2023-05-18T08:44:41.009Z,101229.06
2023-05-18T08:49:43.383Z,101222.84
2023-05-18T08:54:46.028Z,101219.03
2023-05-18T08:59:49.345Z,101218.66
2023-05-18T09:04:51.350Z,101218.56
2023-05-18T09:09:55.085Z,101206.50
2023-05-18T09:14:57.013Z,101196.34
2023-05-18T09:19:58.439Z,101205.63
2023-05-18T09:24:59.935Z,101198.25
2023-05-18T09:30:01.478Z,101201.28
2023-05-18T09:35:06.802Z,101198.47
2023-05-18T09:40:08.731Z,101193.78
2023-05-18T09:45:25.546Z,101193.09
2023-05-18T09:50:27.348Z,101185.81
2023-05-18T09:55:29.085Z,101179.72
2023-05-18T10:00:30.792Z,101180.19
2023-05-18T10:05:36.062Z,101173.06
2023-05-18T10:10:39.506Z,101173.75
2023-05-18T10:15:54.125Z,101166.22
2023-05-18T10:20:59.999Z,101160.19
2023-05-18T10:26:05.465Z,101173.16
2023-05-18T10:31:08.301Z,101154.72
2023-05-18T10:36:10.963Z,101145.72
2023-05-18T10:41:13.376Z,101150.50
2023-05-18T10:46:16.694Z,101145.19
2023-05-18T10:51:20.148Z,101146.63
2023-05-18T10:56:23.423Z,101134.97
2023-05-18T11:01:25.025Z,101142.22
2023-05-18T11:06:27.286Z,101127.47
2023-05-18T11:11:30.178Z,101124.94
2023-05-18T11:16:36.631Z,101119.50
2023-05-18T11:21:41.359Z,101122.41
2023-05-18T11:26:44.940Z,101110.06
2023-05-18T11:31:47.895Z,101117.97
2023-05-18T11:36:56.406Z,101109.34
2023-05-18T11:42:02.259Z,101110.59
2023-05-18T11:47:05.873Z,101097.56
2023-05-18T11:52:16.757Z,101096.19
2023-05-18T11:57:19.973Z,101094.13
2023-05-18T12:02:26.820Z,101097.03
2023-05-18T12:07:30.396Z,101081.56
2023-05-18T12:12:33.992Z,101084.34
2023-05-18T12:17:46.586Z,101075.78
2023-05-18T12:22:53.698Z,101072.56
2023-05-18T12:27:56.925Z,101071.97
2023-05-18T12:33:01.227Z,101078.00
2023-05-18T12:38:03.116Z,101065.56
2023-05-18T12:43:04.741Z,101062.75
2023-05-18T12:48:11.966Z,101049.44
2023-05-18T12:53:13.544Z,101054.13
2023-05-18T12:58:18.100Z,101048.59
2023-05-18T13:03:22.297Z,101043.94
2023-05-18T13:08:24.376Z,101042.25
2023-05-18T13:13:25.836Z,101037.00
2023-05-18T13:18:28.416Z,101030.88
2023-05-18T13:23:30.119Z,101024.63
2023-05-18T13:28:31.597Z,101032.25
2023-05-18T13:33:33.114Z,101032.44
2023-05-18T13:38:37.094Z,101014.19
2023-05-18T13:43:38.669Z,101015.28
2023-05-18T13:48:40.160Z,101022.06
2023-05-18T13:53:41.661Z,101008.47
2023-05-18T13:58:44.628Z,101005.94
2023-05-18T14:03:46.052Z,100998.28
2023-05-18T14:08:47.499Z,100998.47
2023-05-18T14:13:50.320Z,100999.13
2023-05-18T14:18:51.789Z,100983.28
2023-05-18T14:23:53.239Z,100970.06
2023-05-18T14:28:54.644Z,100972.09
2023-05-18T14:33:56.267Z,100976.75
2023-05-18T14:38:57.789Z,100963.47
2023-05-18T14:43:59.227Z,100973.19
2023-05-18T14:49:00.702Z,100972.44
2023-05-18T14:54:02.726Z,100963.84
2023-05-18T14:59:04.142Z,100958.69
2023-05-18T15:04:05.751Z,100963.59
2023-05-18T15:09:08.255Z,100955.66
2023-05-18T15:14:09.925Z,100947.91
2023-05-18T15:19:11.338Z,100962.38
2023-05-18T15:24:12.807Z,100953.88
2023-05-18T15:29:14.233Z,100952.28
2023-05-18T15:34:15.736Z,100945.97
2023-05-18T15:39:17.140Z,100945.47
2023-05-18T15:44:18.646Z,100945.50
2023-05-18T15:49:21.663Z,100942.81
2023-05-18T15:54:23.066Z,100940.63
2023-05-18T15:59:24.457Z,100938.75
2023-05-18T16:04:25.877Z,100928.63
2023-05-18T16:09:27.258Z,100929.47
2023-05-18T16:14:28.701Z,100924.75
2023-05-18T16:19:30.630Z,100923.66
2023-05-18T16:24:32.117Z,100928.91
2023-05-18T16:29:33.567Z,100926.13
2023-05-18T16:34:35.004Z,100934.44
2023-05-18T16:39:36.876Z,100938.84
2023-05-18T16:44:38.339Z,100934.41
2023-05-18T16:49:39.992Z,100933.31
2023-05-18T16:54:41.658Z,100950.63
2023-05-18T16:59:43.062Z,100950.53
2023-05-18T17:04:49.667Z,100948.25
2023-05-18T17:09:51.218Z,100949.34
2023-05-18T17:14:52.649Z,100953.09
2023-05-18T17:19:54.280Z,100949.31
2023-05-18T17:24:55.934Z,100947.66
2023-05-18T17:29:57.749Z,100953.59
2023-05-18T17:34:59.199Z,100946.22
2023-05-18T17:40:00.881Z,100941.94
2023-05-18T17:45:02.427Z,100947.88
2023-05-18T17:50:04.349Z,100953.69
2023-05-18T17:55:06.310Z,100947.94
2023-05-18T18:00:08.450Z,100953.03
2023-05-18T18:05:10.112Z,100954.69
2023-05-18T18:10:11.808Z,100958.38
2023-05-18T18:15:13.256Z,100966.91
2023-05-18T18:20:14.978Z,100965.75
2023-05-18T18:25:16.553Z,100978.06
2023-05-18T18:30:18.006Z,100976.34
2023-05-18T18:35:19.456Z,100978.97
2023-05-18T18:40:20.990Z,100974.59
2023-05-18T18:45:22.493Z,100986.41
2023-05-18T18:50:24.811Z,100989.28
2023-05-18T18:55:26.577Z,100990.03
2023-05-18T19:00:28.612Z,100995.50
2023-05-18T19:05:31.338Z,101004.34
2023-05-18T19:10:34.186Z,101008.75
2023-05-18T19:15:36.322Z,101016.81
2023-05-18T19:20:37.776Z,101035.38
2023-05-18T19:25:39.220Z,101035.91
2023-05-18T19:30:40.657Z,101038.78
2023-05-18T19:35:42.082Z,101053.31
2023-05-18T19:40:43.524Z,101044.66
2023-05-18T19:45:44.997Z,101051.78
2023-05-18T19:50:46.481Z,101051.72
2023-05-18T19:55:48.850Z,101055.78
2023-05-18T20:00:52.703Z,101056.97
2023-05-18T20:05:56.008Z,101059.38
2023-05-18T20:10:58.601Z,101067.19
2023-05-18T20:16:02.751Z,101066.09
2023-05-18T20:21:04.262Z,101067.69
2023-05-18T20:26:06.665Z,101078.75
2023-05-18T20:31:08.085Z,101084.91
2023-05-18T20:36:10.451Z,101074.00
2023-05-18T20:41:11.958Z,101077.03
2023-05-18T20:46:16.085Z,101091.25
2023-05-18T20:51:19.262Z,101092.56
2023-05-18T20:56:22.773Z,101092.47
2023-05-18T21:01:28.853Z,101096.19
2023-05-18T21:06:30.867Z,101101.34
2023-05-18T21:11:32.822Z,101098.53
2023-05-18T21:16:34.440Z,101103.47
2023-05-18T21:21:35.945Z,101108.72
2023-05-18T21:26:37.385Z,101108.81
2023-05-18T21:31:38.923Z,101110.16
2023-05-18T21:36:41.538Z,101105.81
2023-05-18T21:41:44.341Z,101109.59
2023-05-18T21:46:45.895Z,101102.34
2023-05-18T21:51:47.422Z,101104.25
2023-05-18T21:56:48.826Z,101104.50
2023-05-18T22:01:50.627Z,101100.00
2023-05-18T22:06:55.222Z,101106.97
2023-05-18T22:11:57.456Z,101104.63
2023-05-18T22:16:59.018Z,101096.03
2023-05-18T22:22:01.387Z,101102.66
2023-05-18T22:27:04.027Z,101103.06
2023-05-18T22:32:06.135Z,101100.13
2023-05-18T22:37:07.654Z,101109.44
2023-05-18T22:42:09.092Z,101099.84
2023-05-18T22:47:11.277Z,101094.28
2023-05-18T22:52:12.730Z,101100.28
2023-05-18T22:57:14.095Z,101096.97
2023-05-18T23:02:15.552Z,101094.63
2023-05-18T23:07:17.249Z,101090.94
2023-05-18T23:12:18.759Z,101097.25
2023-05-18T23:17:22.943Z,101095.91
2023-05-18T23:22:25.500Z,101093.06
2023-05-18T23:27:26.959Z,101090.25
2023-05-18T23:32:28.896Z,101079.81
2023-05-18T23:37:34.960Z,101077.34
2023-05-18T23:42:36.776Z,101078.16
2023-05-18T23:47:38.500Z,101079.69
2023-05-18T23:52:41.584Z,101076.00
2023-05-18T23:57:43.375Z,101069.09
